AirNav   Air Wisconsin pilot careers
 
 1214 users online  

31AZ Benson Airport
Benson, Arizona, USA

GOING TO BENSON?


FAA INFORMATION EFFECTIVE 21 JUNE 2018

Location

FAA Identifier: 31AZ
Lat/Long: 31-57-49.3000N / 110-15-35.2610W
31-57.821667N / 110-15.587683W
31.9636944 / -110.2597947
(estimated)
Elevation: 3628 ft. / 1105.8 m (surveyed)
Variation: 12E (1985)
From city: 2 miles E of BENSON, AZ
Time zone: UTC -7 (year round; does not observe DST)
Zip code: 85602

Airport Operations

Airport use: Private use. Permission required prior to landing
Activation date: 02/1947
Control tower: no
ARTCC: ALBUQUERQUE CENTER
FSS: PRESCOTT FLIGHT SERVICE STATION
Attendance: UNATNDD
Wind indicator: yes
Segmented circle: no

Airport Communications

WX AWOS-3 at E95 (5 nm NW): 118.475 (520-586-4409)

Nearby radio navigation aids

VOR radial/distance  VOR name  Freq  Var
FHUr359/23.0LIBBY VOR/DME113.6013E
TUSr091/34.2TUCSON VORTAC116.0012E

 
NDB name  Hdg/Dist  Freq  Var  ID
DRAGOO358/23.141013EDAO -.. .- ---

Airport Services

Fuel available: 100 80
Airframe service: NONE
Powerplant service: NONE
Bottled oxygen: NONE
Bulk oxygen: NONE

Runway Information

Runway 8/26

Dimensions: 4800 x 140 ft. / 1463 x 43 m
Surface: dirt, in fair condition
RUNWAY 8  RUNWAY 26
Gradient: 1.2%1.2%
Traffic pattern: leftleft
Runway end identifier lights: nono
Obstructions: pline, 300 ft. from runway, 6:1 slope to clear
5' BRUSH AT THR; 4' BANK; AND 5' FENCE 110' FROM W END.
none

Airport Ownership and Management from official FAA records

Ownership: Privately-owned
Owner: BEN A TAYLOR
BOX 54
BENSON, AZ 85602
Phone 602-586-3421
Manager: BEN A TAYLOR
BOX 54
BENSON, AZ 85602
Phone 602-586-3421

Airport Operational Statistics

Aircraft based on the field: 8
Single engine airplanes: 8
    
Aircraft operations: avg 58/month *
71% military
14% transient general aviation
14% local general aviation
* for 12-month period ending 05 October 1990

Additional Remarks

USE AT PILOTS OWN RISK--PRIOR CONTACT RECOMMENDED.
GOPHER HOLES, SLICK & MUDDY WHEN WET

Instrument Procedures

There are no published instrument procedures at 31AZ.

Some nearby airports with instrument procedures:

KFHU - Sierra Vista Municipal Airport-Libby Army Airfield (23 nm S)
P33 - Cochise County Airport (25 nm NE)
KDMA - Davis Monthan Air Force Base (34 nm W)
KTUS - Tucson International Airport (36 nm W)
KOLS - Nogales International Airport (44 nm SW)
 
Loc | Ops | Rwys | IFR | FBO | Links
Com | Nav | Svcs | Stats | Notes


 
Area around 31AZ (Benson Airport)
 
Road maps at: MapQuest Bing Google
 
Aerial photo
No photo
 
Sectional chart

 
Airport distance calculator
Flying to Benson Airport? Find the distance to fly.

From to 31AZ

Sunrise and sunset
Times for 16-Jul-2018
 Local
(UTC-7)
 Zulu
(UTC)
Morning civil twilight05:0012:00
Sunrise05:2712:27
Sunset19:2702:27
Evening civil twilight19:5402:54

Current date and time
Zulu (UTC)  16-Jul-2018 23:44:11
Local (UTC-7)  16-Jul-2018 16:44:11
 
METAR
KFHU 
22nm S 
161958Z 30004KT 10SM SCT048 BKN090 BKN250 28/15 A3017 RMK AO2A LTG DSNT SE-S SLP141 T02810154
KDMA 
33nm W 
162331Z AUTO 19009KT 8SM -TSRA BKN075 OVC110 27/20 A2996 RMK AO2 RAB01E23DZB23E25RAB31 TSB16 SLP105 $
KTUS 
37nm W 
162318Z 09008KT 10SM TS FEW080 OVC100 35/15 A2996 RMK AO2 LTG DSNT N-SE RAB09E18 TSB18 P0000 T03500150
TAF
KFHU 
22nm S 
161803Z 1618/1724 29009KT 9999 VCSH SCT050 BKN100 QNH3011INS BECMG 1620/1621 29012KT 9999 VCTS SCT040CB BKN100 QNH3008INS TEMPO 1623/1704 10020G30KT -TSRA BKN040CB BECMG 1705/1706 VRB06KT 9999 NSW SCT040 BKN090 QNH3015INS BECMG 1718/1719 08009KT 9999 VCTS SCT040CB BKN100 QNH3014INS TEMPO 1720/1724 VRB25G35KT 6000 -TSRA BKN040CB TX30/1622Z TN18/1712Z
NOTAMs
Click for the latest NOTAMs
NOTAMs are issued by the DoD/FAA and will open in a separate window not controlled by AirNav.

 

 
 

Would you like to see your business listed on this page?

 If your business provides an interesting product or service to pilots, flight crews, aircraft, or users of the Benson Airport, you should consider listing it here.  To start the listing process, click on the button below
 
Add a business
 

Other Pages about Benson Airport

Update a link
 
Copyright © AirNav, LLC. All rights reserved. Privacy Policy  Contact